Bramble, Montserrat

11:21 AM AST on February 08, 2016 (GMT -0400)
Newcastle | | Change Station
CLOSE
Current Station
Airport
Location: Nevis,
Elevation: 56 ft
Nearby Weather Stations

Elev 56 ft 17.21 °N, 62.59 °W | Updated 21 minutes ago

Partly Cloudy
Partly Cloudy
84 °F
Feels Like 88 °F
N
12
Wind Variable Wind from SE

Today
High -- | Low -- °F
--% Chance of Precip.
Yesterday
High -- | Low -- °F
Precip. -- in
Pressure 30.06 in
Visibility 6.2 miles
Clouds Few 2000 ft
Heat Index 88 °F
Dew Point 70 °F
Humidity 62%
Rainfall 0.00 in
Snow Depth Not available.
6:37 AM 6:08 PM
New Moon, 0% visible
METAR TKPN 081500Z 13010KT 9999 FEW020 29/21 Q1018
Pressure 30.06 in
Visibility 6.2 miles
Clouds Few 2000 ft
Heat Index 88 °F
Dew Point 70 °F
Humidity 62%
Rainfall 0.00 in
Snow Depth Not available.
6:37 AM 6:08 PM
New Moon, 0% visible
METAR TKPN 081500Z 13010KT 9999 FEW020 29/21 Q1018

10-Day Weather Forecast

No radar image for this location.
×

Almanac

Astronomy

Feb. 08, 2016 Rise Set
Actual Time
Civil Twilight
Nautical Twilight
Astronomical Twilight
Moon
Length of Visible Light
Length of Day
Tomorrow will be .
, % of the Moon is Illuminated

Today's Extremes

Country Highs Country Lows

Community

WunderPhotos

Upload Photos

1,891,441 photos uploaded!

WunderBlog® & News

Nearby

Air Quality

  Air Quality AQ Index Pollutant
Not available.

Snow Depth

Station Depth Elevation

Earthquake Activity

City Distance Mag. Time & Date
Minimum magnitude displayed is 2.5.

Coastal Water Temperatures

Place Temperature

Stations

Nearby Weather Stations

Station Location Temp. Windchill Dew Point Humidity Wind Precip. Elev Updated Type